This is the latest recevied weather packets stored in our database for station/object SQ6RR-11. If no packets are shown the sender has not sent any weather packets the latest 10 day(s).
| Time | Temp. | Humidity | Pressure | Rain* | Wind** | Luminosity | Snow |
|---|---|---|---|---|---|---|---|
| 1778149032 | 11.11° C | 99% | 1012.8 hPa | 0 mm | - | - | - |
| 1778148774 | 12.22° C | 99% | 1012.9 hPa | 0 mm | - | - | - |
| 1778148523 | 11.67° C | 99% | 1012.9 hPa | 0 mm | - | - | - |
| 1778148251 | 12.22° C | 99% | 1012.9 hPa | 0 mm | - | - | - |
| 1778147996 | 11.67° C | 98% | 1012.7 hPa | 0 mm | - | - | - |
| 1778147736 | 12.78° C | 99% | 1012.6 hPa | 0 mm | - | - | - |
| 1778147455 | 12.22° C | 97% | 1012.6 hPa | 0 mm | - | - | - |
| 1778147203 | 12.78° C | 97% | 1012.6 hPa | 0 mm | - | - | - |
| 1778146938 | 12.78° C | 98% | 1012.6 hPa | 0 mm | - | - | - |
| 1778146693 | 12.78° C | 98% | 1012.5 hPa | 0 mm | - | - | - |
| 1778146427 | 12.22° C | 96% | 1012.5 hPa | 0 mm | - | - | - |
| 1778146167 | 12.22° C | 96% | 1012.4 hPa | 0 mm | - | - | - |
| 1778145901 | 12.78° C | 95% | 1012.3 hPa | 0 mm | - | - | - |
| 1778145646 | 12.78° C | 94% | 1012.2 hPa | 0 mm | - | - | - |
| 1778145364 | 13.33° C | 96% | 1012.2 hPa | 0 mm | - | - | - |
| 1778145098 | 13.33° C | 94% | 1012 hPa | 0 mm | - | - | - |
| 1778144829 | 13.33° C | 98% | 1012 hPa | 0 mm | - | - | - |
| 1778144552 | 13.33° C | 99% | 1011.9 hPa | 0 mm | - | - | - |
| 1778144292 | 13.33° C | 99% | 1011.9 hPa | 0 mm | - | - | - |
| 1778144019 | 12.22° C | 96% | 1011.8 hPa | 0 mm | - | - | - |
| 1778143762 | 13.33° C | 99% | 1011.9 hPa | 0 mm | - | - | - |
| 1778143499 | 13.33° C | 99% | 1011.7 hPa | 0 mm | - | - | - |
| 1778143246 | 12.78° C | 99% | 1011.8 hPa | 0 mm | - | - | - |
| 1778142982 | 12.22° C | 99% | 1011.7 hPa | 0 mm | - | - | - |
| 1778142706 | 12.78° C | 99% | 1011.7 hPa | 0 mm | - | - | - |
* Rain latest hour (hover to see other rain measurements)
** Current wind speed in m/s (hover to see current wind gust speed)